createdAt,value
2022-08-08T00:02:03.241Z,12.25
2022-08-08T00:04:38.540Z,9.88
2022-08-08T00:07:29.890Z,13.32
2022-08-08T00:10:12.858Z,12.40
2022-08-08T00:12:48.542Z,12.85
2022-08-08T00:15:57.430Z,11.60
2022-08-08T00:18:18.797Z,12.25
2022-08-08T00:21:07.850Z,12.43
2022-08-08T00:23:47.824Z,13.32
2022-08-08T00:26:38.811Z,12.30
2022-08-08T00:29:17.224Z,12.57
2022-08-08T00:32:15.607Z,12.65
2022-08-08T00:35:18.482Z,11.68
2022-08-08T00:38:01.366Z,12.25
2022-08-08T00:41:10.463Z,13.82
2022-08-08T00:43:20.354Z,15.90
2022-08-08T00:45:48.171Z,15.75
2022-08-08T00:48:29.868Z,15.55
2022-08-08T00:50:58.024Z,13.32
2022-08-08T00:53:30.645Z,14.98
2022-08-08T00:56:32.535Z,12.40
2022-08-08T00:59:43.798Z,16.73
2022-08-08T01:03:15.414Z,13.02
2022-08-08T01:05:29.177Z,13.68
2022-08-08T01:08:19.745Z,16.17
2022-08-08T01:11:14.839Z,14.10
2022-08-08T01:14:00.113Z,14.85
2022-08-08T01:16:33.256Z,16.70
2022-08-08T01:19:41.903Z,13.85
2022-08-08T01:22:23.577Z,14.68
2022-08-08T01:25:26.166Z,17.85
2022-08-08T01:28:14.959Z,15.02
2022-08-08T01:31:03.276Z,16.98
2022-08-08T01:34:00.345Z,15.82
2022-08-08T01:36:51.636Z,16.35
2022-08-08T01:39:28.310Z,17.55
2022-08-08T01:42:09.149Z,15.90
2022-08-08T01:44:50.646Z,17.65
2022-08-08T01:48:15.737Z,17.58
2022-08-08T01:50:29.871Z,16.25
2022-08-08T01:55:17.004Z,15.70
2022-08-08T01:56:28.539Z,14.32
2022-08-08T01:59:17.015Z,15.45
2022-08-08T02:02:00.702Z,15.63
2022-08-08T02:04:43.030Z,14.50
2022-08-08T02:07:14.933Z,15.63
2022-08-08T02:10:12.054Z,14.35
2022-08-08T02:12:51.778Z,16.02
2022-08-08T02:15:39.189Z,15.00
2022-08-08T02:18:14.381Z,13.48
2022-08-08T02:21:13.232Z,16.85
2022-08-08T02:23:48.269Z,14.32
2022-08-08T02:26:25.614Z,17.17
2022-08-08T02:29:18.538Z,17.13
2022-08-08T02:32:05.499Z,16.55
2022-08-08T02:35:08.232Z,14.75
2022-08-08T02:37:53.505Z,16.45
2022-08-08T02:40:45.260Z,13.45
2022-08-08T02:44:39.377Z,17.95
2022-08-08T02:46:41.557Z,17.95
2022-08-08T02:49:47.310Z,13.30
2022-08-08T02:52:35.203Z,17.90
2022-08-08T02:55:05.847Z,17.25
2022-08-08T02:58:15.858Z,14.90
2022-08-08T03:00:50.815Z,14.30
2022-08-08T03:05:05.355Z,17.08
2022-08-08T03:06:42.523Z,17.50
2022-08-08T03:09:09.632Z,19.47
2022-08-08T03:12:02.686Z,15.65
2022-08-08T03:15:58.625Z,15.15
2022-08-08T03:17:59.729Z,16.45
2022-08-08T03:20:51.482Z,15.75
2022-08-08T03:23:19.215Z,14.73
2022-08-08T03:25:50.276Z,13.20
2022-08-08T03:28:18.746Z,15.38
2022-08-08T03:30:48.781Z,16.80
2022-08-08T03:33:55.740Z,14.73
2022-08-08T03:36:10.438Z,17.75
2022-08-08T03:38:56.872Z,19.70
2022-08-08T03:42:26.589Z,15.45
2022-08-08T03:44:25.475Z,18.02
2022-08-08T03:46:56.076Z,17.75
2022-08-08T03:49:57.326Z,16.10
2022-08-08T03:52:12.977Z,19.98
2022-08-08T03:55:02.684Z,16.38
2022-08-08T03:58:35.843Z,18.98
2022-08-08T04:00:33.049Z,13.27
2022-08-08T04:03:11.752Z,15.38
2022-08-08T04:05:49.611Z,15.43
2022-08-08T04:08:33.089Z,17.10
2022-08-08T04:11:03.053Z,18.25
2022-08-08T04:14:03.632Z,17.77
2022-08-08T04:16:38.849Z,19.60
2022-08-08T04:19:23.160Z,17.13
2022-08-08T04:21:52.315Z,16.85
2022-08-08T04:24:29.257Z,20.55
2022-08-08T04:26:59.156Z,19.15
2022-08-08T04:29:27.064Z,16.40
2022-08-08T04:32:03.337Z,15.95
2022-08-08T04:34:56.031Z,18.13
2022-08-08T04:37:31.650Z,18.73
2022-08-08T04:40:07.865Z,18.52
2022-08-08T04:42:46.783Z,17.80
2022-08-08T04:45:25.415Z,21.95
2022-08-08T04:47:55.692Z,17.35
2022-08-08T04:50:25.161Z,20.30
2022-08-08T04:53:00.843Z,18.33
2022-08-08T04:55:47.378Z,17.73
2022-08-08T04:58:17.638Z,17.20
2022-08-08T05:00:48.374Z,17.95
2022-08-08T05:03:19.074Z,18.75
2022-08-08T05:06:13.046Z,17.70
2022-08-08T05:08:45.835Z,15.75
2022-08-08T05:11:18.645Z,17.48
2022-08-08T05:13:57.583Z,14.50
2022-08-08T05:16:52.128Z,16.75
2022-08-08T05:20:11.998Z,16.33
2022-08-08T05:22:11.484Z,17.10
2022-08-08T05:24:38.942Z,17.23
2022-08-08T05:27:07.705Z,17.27
2022-08-08T05:29:35.923Z,14.82
2022-08-08T05:32:06.542Z,18.00
2022-08-08T05:34:37.051Z,17.75
2022-08-08T05:37:15.829Z,17.40
2022-08-08T05:39:51.073Z,17.45
2022-08-08T05:42:25.898Z,17.17
2022-08-08T05:45:00.554Z,15.73
2022-08-08T05:47:52.834Z,14.20
2022-08-08T05:50:28.832Z,17.20
2022-08-08T05:52:56.388Z,14.02
2022-08-08T05:55:25.824Z,16.42
2022-08-08T05:58:06.249Z,15.55
2022-08-08T06:00:45.812Z,16.98
2022-08-08T06:03:29.376Z,15.23
2022-08-08T06:06:01.632Z,14.48
2022-08-08T06:08:53.431Z,16.52
2022-08-08T06:11:23.000Z,15.93
2022-08-08T06:13:55.507Z,16.42
2022-08-08T06:16:27.483Z,16.40
2022-08-08T06:19:05.255Z,12.43
2022-08-08T06:21:51.808Z,15.95
2022-08-08T06:24:30.510Z,17.15
2022-08-08T06:27:04.263Z,14.43
2022-08-08T06:30:01.159Z,12.98
2022-08-08T06:32:33.760Z,13.80
2022-08-08T06:35:30.723Z,14.80
2022-08-08T06:38:02.165Z,11.80
2022-08-08T06:40:36.841Z,14.98
2022-08-08T06:43:09.464Z,12.10
2022-08-08T06:45:48.171Z,12.35
2022-08-08T06:48:15.561Z,14.85
2022-08-08T06:50:45.355Z,15.77
2022-08-08T06:53:17.176Z,11.07
2022-08-08T06:56:02.246Z,11.73
2022-08-08T06:58:40.738Z,16.52
2022-08-08T07:02:18.199Z,12.93
2022-08-08T07:04:39.755Z,11.15
2022-08-08T07:07:11.073Z,13.80
2022-08-08T07:09:59.956Z,11.05
2022-08-08T07:12:32.216Z,14.02
2022-08-08T07:15:09.130Z,10.57
2022-08-08T07:18:34.566Z,12.60
2022-08-08T07:20:45.949Z,12.18
2022-08-08T07:23:23.748Z,13.07
2022-08-08T07:25:56.169Z,9.25
2022-08-08T07:28:24.304Z,10.13
2022-08-08T07:30:59.572Z,11.05
2022-08-08T07:33:27.979Z,9.55
2022-08-08T07:36:08.236Z,10.00
2022-08-08T07:38:36.628Z,10.13
2022-08-08T07:41:05.511Z,8.63
2022-08-08T07:43:38.074Z,8.35
2022-08-08T07:46:23.529Z,10.27
2022-08-08T07:48:55.455Z,8.23
2022-08-08T07:51:45.408Z,7.55
2022-08-08T07:54:33.155Z,9.98
2022-08-08T07:57:10.378Z,5.57
2022-08-08T07:59:46.625Z,6.15
2022-08-08T08:02:33.508Z,10.38
2022-08-08T08:05:14.980Z,8.43
2022-08-08T08:07:45.957Z,9.60
2022-08-08T08:10:30.641Z,8.85
2022-08-08T08:13:25.444Z,7.35
2022-08-08T08:16:09.659Z,8.20
2022-08-08T08:18:56.232Z,8.05
2022-08-08T08:21:44.731Z,5.72
2022-08-08T08:24:12.817Z,5.47
2022-08-08T08:26:52.533Z,6.55
2022-08-08T08:29:21.830Z,8.30
2022-08-08T08:31:53.974Z,7.45
2022-08-08T08:34:24.752Z,8.32
2022-08-08T08:36:59.767Z,6.07
2022-08-08T08:39:59.977Z,6.05
2022-08-08T08:42:29.226Z,7.93
2022-08-08T08:44:59.997Z,3.78
2022-08-08T08:48:05.825Z,6.20
2022-08-08T08:50:31.532Z,8.05
2022-08-08T08:53:04.907Z,5.43
2022-08-08T08:55:50.503Z,5.65
2022-08-08T08:58:39.528Z,6.63
2022-08-08T09:01:10.181Z,4.05
2022-08-08T09:03:46.518Z,4.72
2022-08-08T09:06:28.680Z,4.82
2022-08-08T09:09:04.492Z,6.75
2022-08-08T09:11:47.097Z,5.63
2022-08-08T09:14:26.163Z,3.80
2022-08-08T09:17:11.468Z,4.15
2022-08-08T09:21:56.132Z,5.60
2022-08-08T09:22:34.444Z,4.68
2022-08-08T09:25:05.788Z,7.82
2022-08-08T09:27:42.147Z,5.13
2022-08-08T09:30:28.756Z,3.97
2022-08-08T09:33:54.656Z,4.30
2022-08-08T09:39:22.811Z,4.80
2022-08-08T09:42:21.307Z,4.85
2022-08-08T09:45:08.215Z,4.68
2022-08-08T09:48:09.656Z,5.28
2022-08-08T09:50:35.587Z,4.32
2022-08-08T09:53:23.656Z,4.35
2022-08-08T09:56:04.632Z,3.65
2022-08-08T09:58:40.477Z,3.92
2022-08-08T10:03:55.961Z,4.07
2022-08-08T10:06:29.290Z,3.88
2022-08-08T10:08:57.304Z,3.90
2022-08-08T10:12:27.788Z,2.53
2022-08-08T10:14:56.471Z,2.50
2022-08-08T10:18:05.805Z,3.78
2022-08-08T10:20:50.935Z,3.67
2022-08-08T10:23:44.035Z,2.83
2022-08-08T10:26:30.190Z,3.92
2022-08-08T10:29:08.160Z,6.25
2022-08-08T10:32:04.282Z,3.90
2022-08-08T10:34:33.475Z,3.78
2022-08-08T10:37:00.780Z,3.33
2022-08-08T10:39:43.684Z,5.20
2022-08-08T10:42:18.539Z,5.18
2022-08-08T10:44:51.065Z,5.70
2022-08-08T10:47:23.697Z,3.35
2022-08-08T10:52:30.909Z,3.13
2022-08-08T10:55:41.377Z,4.97
2022-08-08T10:58:07.702Z,2.45
2022-08-08T11:00:48.552Z,3.45
2022-08-08T11:03:37.173Z,2.38
2022-08-08T11:06:12.623Z,3.15
2022-08-08T11:08:50.068Z,2.10
2022-08-08T11:11:32.152Z,3.55
2022-08-08T11:14:08.178Z,4.28
2022-08-08T11:16:46.756Z,4.20
2022-08-08T11:19:15.682Z,3.28
2022-08-08T11:21:55.205Z,2.75
2022-08-08T11:24:26.469Z,4.32
2022-08-08T11:26:59.997Z,2.90
2022-08-08T11:29:41.868Z,3.00
2022-08-08T11:32:15.004Z,3.65
2022-08-08T11:35:08.969Z,3.13
2022-08-08T11:38:39.585Z,4.82
2022-08-08T11:40:26.739Z,4.70
2022-08-08T11:42:55.605Z,2.65
2022-08-08T11:45:23.572Z,5.45
2022-08-08T11:48:02.485Z,1.88
2022-08-08T11:50:32.290Z,4.38
2022-08-08T11:53:06.038Z,3.72
2022-08-08T11:55:36.223Z,3.90
2022-08-08T11:58:14.507Z,4.53
2022-08-08T12:00:53.523Z,4.03
2022-08-08T12:03:21.446Z,5.55
2022-08-08T12:05:49.310Z,2.72
2022-08-08T12:08:17.071Z,4.32
2022-08-08T12:10:48.798Z,4.65
2022-08-08T12:13:16.700Z,3.90
2022-08-08T12:15:49.985Z,3.85
2022-08-08T12:18:20.615Z,3.85
2022-08-08T12:20:48.560Z,3.83
2022-08-08T12:23:30.388Z,3.88
2022-08-08T12:26:17.091Z,3.92
2022-08-08T12:28:55.632Z,5.18
2022-08-08T12:31:39.109Z,4.63
2022-08-08T12:34:33.140Z,4.50
2022-08-08T12:37:08.852Z,4.97
2022-08-08T12:40:00.307Z,3.78
2022-08-08T12:42:29.490Z,2.33
2022-08-08T12:45:53.551Z,4.20
2022-08-08T12:48:10.220Z,3.50
2022-08-08T12:50:49.268Z,5.68
2022-08-08T12:53:24.825Z,3.08
2022-08-08T12:56:18.225Z,2.75
2022-08-08T12:58:51.840Z,4.20
2022-08-08T13:01:29.523Z,3.20
2022-08-08T13:04:18.713Z,3.88
2022-08-08T13:07:05.173Z,2.83
2022-08-08T13:10:01.953Z,3.30
2022-08-08T13:12:38.642Z,2.58
2022-08-08T13:15:13.682Z,4.82
2022-08-08T13:18:08.297Z,2.95
2022-08-08T13:20:30.738Z,3.42
2022-08-08T13:23:30.264Z,7.35
2022-08-08T13:25:50.176Z,4.88
2022-08-08T13:28:32.140Z,3.97
2022-08-08T13:31:00.498Z,2.83
2022-08-08T13:33:42.487Z,6.28
2022-08-08T13:36:11.115Z,4.22
2022-08-08T13:38:41.366Z,3.55
2022-08-08T13:41:16.429Z,3.42
2022-08-08T13:46:28.609Z,3.10
2022-08-08T13:49:11.904Z,3.00
2022-08-08T13:51:57.008Z,4.57
2022-08-08T13:54:29.403Z,3.40
2022-08-08T13:57:12.491Z,3.40
2022-08-08T13:59:48.434Z,2.67
2022-08-08T14:04:57.193Z,2.33
2022-08-08T14:07:25.932Z,3.65
2022-08-08T14:10:11.823Z,3.00
2022-08-08T14:12:40.027Z,1.42
2022-08-08T14:15:12.019Z,3.25
2022-08-08T14:17:58.066Z,5.93
2022-08-08T14:20:56.509Z,2.25
2022-08-08T14:24:07.795Z,7.05
2022-08-08T14:26:10.807Z,3.42
2022-08-08T14:28:40.027Z,4.70
2022-08-08T14:31:09.152Z,2.60
2022-08-08T14:33:36.930Z,3.92
2022-08-08T14:36:05.006Z,3.35
2022-08-08T14:38:51.751Z,2.80
2022-08-08T14:41:45.336Z,2.75
2022-08-08T14:44:11.396Z,2.42
2022-08-08T14:46:40.386Z,3.25
2022-08-08T14:49:20.458Z,3.35
2022-08-08T14:52:09.316Z,3.75
2022-08-08T14:54:59.360Z,3.45
2022-08-08T14:58:02.299Z,4.43
2022-08-08T15:00:14.293Z,2.95
2022-08-08T15:02:58.758Z,2.70
2022-08-08T15:05:52.240Z,4.45
2022-08-08T15:08:34.986Z,2.50
2022-08-08T15:11:19.156Z,4.15
2022-08-08T15:14:00.381Z,2.72
2022-08-08T15:16:28.512Z,4.97
2022-08-08T15:18:55.886Z,3.22
2022-08-08T15:21:23.020Z,3.05
2022-08-08T15:23:57.152Z,4.82
2022-08-08T15:26:28.736Z,3.85
2022-08-08T15:28:56.529Z,3.20
2022-08-08T15:32:03.903Z,2.58
2022-08-08T15:34:32.198Z,2.63
2022-08-08T15:37:02.056Z,3.70
2022-08-08T15:39:38.435Z,6.18
2022-08-08T15:42:13.386Z,3.30
2022-08-08T15:44:54.893Z,3.47
2022-08-08T15:47:22.535Z,3.33
2022-08-08T15:49:49.889Z,2.13
2022-08-08T15:52:20.637Z,3.15
2022-08-08T15:54:51.786Z,2.25
2022-08-08T15:57:20.943Z,4.10
2022-08-08T16:00:06.847Z,3.28
2022-08-08T16:02:51.258Z,3.08
2022-08-08T16:05:35.265Z,3.72
2022-08-08T16:08:17.789Z,3.38
2022-08-08T16:13:09.902Z,1.80
2022-08-08T16:13:46.028Z,3.75
2022-08-08T16:16:17.461Z,4.28
2022-08-08T16:18:57.380Z,2.70
2022-08-08T16:21:27.868Z,4.15
2022-08-08T16:24:01.540Z,3.03
2022-08-08T16:26:38.691Z,1.85
2022-08-08T16:29:15.369Z,2.95
2022-08-08T16:31:48.971Z,2.92
2022-08-08T16:34:19.126Z,2.72
2022-08-08T16:36:49.442Z,2.70
2022-08-08T16:39:59.981Z,4.78
2022-08-08T16:42:07.997Z,5.25
2022-08-08T16:44:54.050Z,3.45
2022-08-08T16:47:31.706Z,3.10
2022-08-08T16:50:13.770Z,3.25
2022-08-08T16:55:07.677Z,4.13
2022-08-08T16:55:53.050Z,2.40
2022-08-08T16:58:25.775Z,3.17
2022-08-08T17:00:54.594Z,1.98
2022-08-08T17:03:24.950Z,2.42
2022-08-08T17:06:05.119Z,3.40
2022-08-08T17:08:32.194Z,5.53
2022-08-08T17:11:10.744Z,2.88
2022-08-08T17:13:50.343Z,4.32
2022-08-08T17:16:30.478Z,4.05
2022-08-08T17:19:00.646Z,3.67
2022-08-08T17:21:41.400Z,2.50
2022-08-08T17:24:22.042Z,2.42
2022-08-08T17:27:08.231Z,3.25
2022-08-08T17:29:43.389Z,2.22
2022-08-08T17:32:28.949Z,3.67
2022-08-08T17:35:52.777Z,3.88
2022-08-08T17:37:53.149Z,4.78
2022-08-08T17:40:27.001Z,2.35
2022-08-08T17:42:57.402Z,3.55
2022-08-08T17:45:24.971Z,3.80
2022-08-08T17:47:54.746Z,2.67
2022-08-08T17:50:22.107Z,2.00
2022-08-08T17:52:52.740Z,1.77
2022-08-08T17:56:04.874Z,3.92
2022-08-08T17:58:09.198Z,5.35
2022-08-08T18:00:42.298Z,3.63
2022-08-08T18:03:23.841Z,3.38
2022-08-08T18:05:51.798Z,2.78
2022-08-08T18:08:24.470Z,2.90
2022-08-08T18:11:11.476Z,6.32
2022-08-08T18:13:41.473Z,3.97
2022-08-08T18:16:09.314Z,3.47
2022-08-08T18:18:42.784Z,2.97
2022-08-08T18:21:25.214Z,5.85
2022-08-08T18:24:03.715Z,4.05
2022-08-08T18:26:33.267Z,3.25
2022-08-08T18:29:02.726Z,2.85
2022-08-08T18:31:33.101Z,2.53
2022-08-08T18:34:11.310Z,3.60
2022-08-08T18:36:48.928Z,3.33
2022-08-08T18:39:28.413Z,3.15
2022-08-08T18:42:03.779Z,4.45
2022-08-08T18:44:34.516Z,3.27
2022-08-08T18:47:03.768Z,2.63
2022-08-08T18:49:32.588Z,3.08
2022-08-08T18:52:22.229Z,3.90
2022-08-08T18:55:00.954Z,3.83
2022-08-08T18:57:42.173Z,2.47
2022-08-08T19:00:16.828Z,2.03
2022-08-08T19:02:48.532Z,3.50
2022-08-08T19:05:23.420Z,2.30
2022-08-08T19:07:53.643Z,4.63
2022-08-08T19:10:21.654Z,4.43
2022-08-08T19:12:52.979Z,4.55
2022-08-08T19:15:21.699Z,4.80
2022-08-08T19:18:31.218Z,3.90
2022-08-08T19:20:39.474Z,3.90
2022-08-08T19:23:08.500Z,3.72
2022-08-08T19:26:26.822Z,4.13
2022-08-08T19:28:24.527Z,4.32
2022-08-08T19:31:04.021Z,5.78
2022-08-08T19:37:16.801Z,5.43
2022-08-08T19:39:45.538Z,4.57
2022-08-08T19:42:15.677Z,5.57
2022-08-08T19:44:50.187Z,4.97
2022-08-08T19:47:24.408Z,3.33
2022-08-08T19:49:59.441Z,4.63
2022-08-08T19:52:35.303Z,4.20
2022-08-08T19:55:12.461Z,5.65
2022-08-08T19:57:41.199Z,3.67
2022-08-08T20:00:30.536Z,3.45
2022-08-08T20:03:14.681Z,4.47
2022-08-08T20:06:14.518Z,5.18
2022-08-08T20:08:47.730Z,6.45
2022-08-08T20:11:18.201Z,4.78
2022-08-08T20:14:33.406Z,4.43
2022-08-08T20:16:40.767Z,3.80
2022-08-08T20:19:15.514Z,3.70
2022-08-08T20:21:45.997Z,6.05
2022-08-08T20:24:13.161Z,8.13
2022-08-08T20:26:41.607Z,4.22
2022-08-08T20:29:14.378Z,8.02
2022-08-08T20:32:02.641Z,4.43
2022-08-08T20:34:32.559Z,4.38
2022-08-08T20:37:06.148Z,3.63
2022-08-08T20:39:41.261Z,4.60
2022-08-08T20:42:28.597Z,5.60
2022-08-08T20:44:56.598Z,7.20
2022-08-08T20:47:25.383Z,5.70
2022-08-08T20:49:54.116Z,5.07
2022-08-08T20:52:23.069Z,4.57
2022-08-08T20:54:52.552Z,5.00
2022-08-08T20:57:21.012Z,3.53
2022-08-08T20:59:49.699Z,5.68
2022-08-08T21:02:25.487Z,5.85
2022-08-08T21:07:47.380Z,5.45
2022-08-08T21:10:13.108Z,5.78
2022-08-08T21:12:46.055Z,4.47
2022-08-08T21:15:16.562Z,4.30
2022-08-08T21:18:01.494Z,4.40
2022-08-08T21:20:34.589Z,6.43
2022-08-08T21:23:02.823Z,6.20
2022-08-08T21:25:36.071Z,7.50
2022-08-08T21:28:13.383Z,3.55
2022-08-08T21:30:49.843Z,3.53
2022-08-08T21:33:20.579Z,4.50
2022-08-08T21:36:18.311Z,4.43
2022-08-08T21:38:35.485Z,5.78
2022-08-08T21:41:05.655Z,6.75
2022-08-08T21:43:34.707Z,4.93
2022-08-08T21:48:06.530Z,6.82
2022-08-08T21:48:55.943Z,3.67
2022-08-08T21:54:17.119Z,4.80
2022-08-08T21:54:32.568Z,4.88
2022-08-08T21:57:05.277Z,4.38
2022-08-08T22:00:02.987Z,8.35
2022-08-08T22:02:23.484Z,3.85
2022-08-08T22:04:58.731Z,5.70
2022-08-08T22:07:39.901Z,3.30
2022-08-08T22:10:18.155Z,4.22
2022-08-08T22:13:00.331Z,4.22
2022-08-08T22:15:58.828Z,2.88
2022-08-08T22:18:30.733Z,3.92
2022-08-08T22:21:14.020Z,4.05
2022-08-08T22:23:50.851Z,4.45
2022-08-08T22:26:29.445Z,6.88
2022-08-08T22:29:13.741Z,7.03
2022-08-08T22:32:01.367Z,3.67
2022-08-08T22:34:30.856Z,6.68
2022-08-08T22:36:58.026Z,5.70
2022-08-08T22:39:28.363Z,4.32
2022-08-08T22:42:12.687Z,7.93
2022-08-08T22:44:41.046Z,5.10
2022-08-08T22:47:17.900Z,5.82
2022-08-08T22:49:54.053Z,6.40
2022-08-08T22:52:33.441Z,6.38
2022-08-08T22:55:05.818Z,5.82
2022-08-08T22:57:43.923Z,6.60
2022-08-08T23:00:13.837Z,7.15
2022-08-08T23:02:44.679Z,5.65
2022-08-08T23:05:17.175Z,9.90
2022-08-08T23:07:56.955Z,6.63
2022-08-08T23:10:27.630Z,5.00
2022-08-08T23:12:55.202Z,5.40
2022-08-08T23:16:41.402Z,5.40
2022-08-08T23:18:11.849Z,5.60
2022-08-08T23:20:39.859Z,6.22
2022-08-08T23:23:07.206Z,5.05
2022-08-08T23:25:48.062Z,6.20
2022-08-08T23:28:16.069Z,7.63
2022-08-08T23:30:44.956Z,6.47
2022-08-08T23:33:19.227Z,4.72
2022-08-08T23:36:06.620Z,5.93
2022-08-08T23:38:36.583Z,6.85
2022-08-08T23:41:17.610Z,6.38
2022-08-08T23:43:50.123Z,4.45
2022-08-08T23:49:07.122Z,6.32
2022-08-08T23:49:18.017Z,7.50
2022-08-08T23:52:04.610Z,9.10
2022-08-08T23:54:43.405Z,7.55
2022-08-08T23:57:27.006Z,6.00
